sensor_id;sensor_type;location;lat;lon;timestamp;pressure;altitude;pressure_sealevel;temperature;humidity
73455;BME280;61690;51.824;6.306;2023-05-27T00:02:12;102864.66;;;19.08;46.78
73455;BME280;61690;51.824;6.306;2023-05-27T00:04:37;102862.03;;;19.08;46.44
73455;BME280;61690;51.824;6.306;2023-05-27T00:07:03;102865.56;;;19.07;46.64
73455;BME280;61690;51.824;6.306;2023-05-27T00:09:28;102859.50;;;19.05;46.91
73455;BME280;61690;51.824;6.306;2023-05-27T00:11:53;102867.44;;;19.04;46.34
73455;BME280;61690;51.824;6.306;2023-05-27T00:14:19;102855.19;;;19.03;46.91
73455;BME280;61690;51.824;6.306;2023-05-27T00:16:45;102851.69;;;19.02;46.63
73455;BME280;61690;51.824;6.306;2023-05-27T00:19:11;102857.84;;;19.03;46.69
73455;BME280;61690;51.824;6.306;2023-05-27T00:21:36;102851.69;;;19.02;46.83
73455;BME280;61690;51.824;6.306;2023-05-27T00:24:02;102852.56;;;19.03;46.86
73455;BME280;61690;51.824;6.306;2023-05-27T00:26:28;102854.44;;;18.99;46.67
73455;BME280;61690;51.824;6.306;2023-05-27T00:28:53;102860.53;;;19.01;46.54
73455;BME280;61690;51.824;6.306;2023-05-27T00:31:19;102851.75;;;19.00;46.83
73455;BME280;61690;51.824;6.306;2023-05-27T00:33:44;102851.69;;;19.02;46.40
73455;BME280;61690;51.824;6.306;2023-05-27T00:36:10;102856.91;;;19.04;46.59
73455;BME280;61690;51.824;6.306;2023-05-27T00:38:35;102856.00;;;19.05;46.61
73455;BME280;61690;51.824;6.306;2023-05-27T00:41:02;102849.22;;;18.97;46.67
73455;BME280;61690;51.824;6.306;2023-05-27T00:43:28;102855.34;;;18.98;46.76
73455;BME280;61690;51.824;6.306;2023-05-27T00:45:55;102846.63;;;18.96;46.81
73455;BME280;61690;51.824;6.306;2023-05-27T00:48:20;102851.69;;;19.02;46.73
73455;BME280;61690;51.824;6.306;2023-05-27T00:50:46;102848.09;;;19.05;46.66
73455;BME280;61690;51.824;6.306;2023-05-27T00:53:11;102852.56;;;19.03;46.45
73455;BME280;61690;51.824;6.306;2023-05-27T00:55:37;102861.56;;;18.97;46.56
73455;BME280;61690;51.824;6.306;2023-05-27T00:58:02;102851.91;;;18.96;46.58
73455;BME280;61690;51.824;6.306;2023-05-27T01:00:28;102850.19;;;18.95;46.88
73455;BME280;61690;51.824;6.306;2023-05-27T01:02:55;102851.00;;;18.97;46.84
73455;BME280;61690;51.824;6.306;2023-05-27T01:05:20;102850.13;;;18.96;46.53
73455;BME280;61690;51.824;6.306;2023-05-27T01:10:43;102849.25;;;18.96;46.58
73455;BME280;61690;51.824;6.306;2023-05-27T01:13:31;102841.56;;;18.90;46.79
73455;BME280;61690;51.824;6.306;2023-05-27T01:16:00;102840.59;;;18.92;46.93
73455;BME280;61690;51.824;6.306;2023-05-27T01:18:28;102837.28;;;18.87;46.66
73455;BME280;61690;51.824;6.306;2023-05-27T01:21:03;102830.28;;;18.86;46.79
73455;BME280;61690;51.824;6.306;2023-05-27T01:23:30;102827.81;;;18.82;46.59
73455;BME280;61690;51.824;6.306;2023-05-27T01:25:56;102828.88;;;18.76;46.58
73455;BME280;61690;51.824;6.306;2023-05-27T01:28:22;102821.72;;;18.79;46.79
73455;BME280;61690;51.824;6.306;2023-05-27T01:30:47;102817.34;;;18.78;47.06
73455;BME280;61690;51.824;6.306;2023-05-27T01:33:17;102819.91;;;18.82;46.63
73455;BME280;61690;51.824;6.306;2023-05-27T01:35:46;102825.97;;;18.84;46.80
73455;BME280;61690;51.824;6.306;2023-05-27T01:38:18;102822.59;;;18.78;46.69
73455;BME280;61690;51.824;6.306;2023-05-27T01:40:44;102818.47;;;18.71;47.15
73455;BME280;61690;51.824;6.306;2023-05-27T01:43:11;102821.06;;;18.73;46.87
73455;BME280;61690;51.824;6.306;2023-05-27T01:45:36;102814.00;;;18.73;47.14
73455;BME280;61690;51.824;6.306;2023-05-27T01:48:02;102814.75;;;18.77;46.89
73455;BME280;61690;51.824;6.306;2023-05-27T01:50:28;102813.94;;;18.75;47.06
73455;BME280;61690;51.824;6.306;2023-05-27T01:52:56;102815.03;;;18.69;46.91
73455;BME280;61690;51.824;6.306;2023-05-27T01:55:21;102811.44;;;18.72;46.78
73455;BME280;61690;51.824;6.306;2023-05-27T01:57:47;102816.63;;;18.73;47.31
73455;BME280;61690;51.824;6.306;2023-05-27T02:00:12;102816.72;;;18.72;46.94
73455;BME280;61690;51.824;6.306;2023-05-27T02:02:38;102823.81;;;18.70;46.80
73455;BME280;61690;51.824;6.306;2023-05-27T02:05:03;102818.53;;;18.70;46.96
73455;BME280;61690;51.824;6.306;2023-05-27T02:07:28;102814.16;;;18.69;47.17
73455;BME280;61690;51.824;6.306;2023-05-27T02:09:54;102801.84;;;18.69;46.70
73455;BME280;61690;51.824;6.306;2023-05-27T02:12:19;102816.84;;;18.67;46.95
73455;BME280;61690;51.824;6.306;2023-05-27T02:14:45;102811.59;;;18.67;46.80
73455;BME280;61690;51.824;6.306;2023-05-27T02:17:11;102806.34;;;18.66;46.57
73455;BME280;61690;51.824;6.306;2023-05-27T02:19:37;102809.88;;;18.66;47.28
73455;BME280;61690;51.824;6.306;2023-05-27T02:22:02;102805.56;;;18.64;47.03
73455;BME280;61690;51.824;6.306;2023-05-27T02:24:27;102804.59;;;18.66;47.00
73455;BME280;61690;51.824;6.306;2023-05-27T02:26:52;102808.09;;;18.67;46.77
73455;BME280;61690;51.824;6.306;2023-05-27T02:29:18;102811.59;;;18.67;46.66
73455;BME280;61690;51.824;6.306;2023-05-27T02:31:43;102822.06;;;18.69;47.10
73455;BME280;61690;51.824;6.306;2023-05-27T02:34:08;102810.91;;;18.62;47.19
73455;BME280;61690;51.824;6.306;2023-05-27T02:36:34;102818.72;;;18.64;46.89
73455;BME280;61690;51.824;6.306;2023-05-27T02:39:00;102814.38;;;18.63;47.11
73455;BME280;61690;51.824;6.306;2023-05-27T02:41:25;102816.19;;;18.62;47.07
73455;BME280;61690;51.824;6.306;2023-05-27T02:43:51;102818.72;;;18.64;46.94
73455;BME280;61690;51.824;6.306;2023-05-27T02:46:16;102819.63;;;18.64;47.17
73455;BME280;61690;51.824;6.306;2023-05-27T02:48:42;102814.53;;;18.58;47.15
73455;BME280;61690;51.824;6.306;2023-05-27T02:51:07;102816.19;;;18.62;46.82
73455;BME280;61690;51.824;6.306;2023-05-27T02:53:32;102816.38;;;18.56;47.07
73455;BME280;61690;51.824;6.306;2023-05-27T02:55:57;102810.16;;;18.58;47.14
73455;BME280;61690;51.824;6.306;2023-05-27T02:58:23;102812.03;;;18.55;47.13
73455;BME280;61690;51.824;6.306;2023-05-27T03:00:48;102809.25;;;18.58;47.06
73455;BME280;61690;51.824;6.306;2023-05-27T03:03:13;102818.19;;;18.54;47.07
73455;BME280;61690;51.824;6.306;2023-05-27T03:05:39;102816.38;;;18.56;47.24
73455;BME280;61690;51.824;6.306;2023-05-27T03:08:04;102827.88;;;18.53;47.37
73455;BME280;61690;51.824;6.306;2023-05-27T03:10:34;102821.75;;;18.53;47.13
73455;BME280;61690;51.824;6.306;2023-05-27T03:12:59;102824.22;;;18.57;46.83
73455;BME280;61690;51.824;6.306;2023-05-27T03:15:24;102815.56;;;18.54;47.02
73455;BME280;61690;51.824;6.306;2023-05-27T03:17:50;102824.28;;;18.56;47.31
73455;BME280;61690;51.824;6.306;2023-05-27T03:20:15;102820.16;;;18.49;46.99
73455;BME280;61690;51.824;6.306;2023-05-27T03:22:42;102819.22;;;18.50;47.37
73455;BME280;61690;51.824;6.306;2023-05-27T03:25:08;102814.06;;;18.47;47.09
73455;BME280;61690;51.824;6.306;2023-05-27T03:27:33;102815.69;;;18.51;47.42
73455;BME280;61690;51.824;6.306;2023-05-27T03:29:59;102813.13;;;18.48;47.12
73455;BME280;61690;51.824;6.306;2023-05-27T03:32:24;102813.91;;;18.51;47.34
73455;BME280;61690;51.824;6.306;2023-05-27T03:34:50;102806.16;;;18.47;47.24
73455;BME280;61690;51.824;6.306;2023-05-27T03:37:15;102807.88;;;18.48;47.15
73455;BME280;61690;51.824;6.306;2023-05-27T03:39:40;102809.69;;;18.46;47.32
73455;BME280;61690;51.824;6.306;2023-05-27T03:42:06;102809.69;;;18.46;47.40
73455;BME280;61690;51.824;6.306;2023-05-27T03:44:32;102810.59;;;18.45;47.40
73455;BME280;61690;51.824;6.306;2023-05-27T03:46:57;102808.84;;;18.45;47.37
73455;BME280;61690;51.824;6.306;2023-05-27T03:49:22;102807.78;;;18.51;47.15
73455;BME280;61690;51.824;6.306;2023-05-27T03:51:48;102801.84;;;18.44;47.21
73455;BME280;61690;51.824;6.306;2023-05-27T03:54:14;102797.56;;;18.41;47.33
73455;BME280;61690;51.824;6.306;2023-05-27T03:56:39;102799.38;;;18.39;46.99
73455;BME280;61690;51.824;6.306;2023-05-27T03:59:05;102804.44;;;18.46;47.00
73455;BME280;61690;51.824;6.306;2023-05-27T04:01:31;102799.25;;;18.42;47.37
73455;BME280;61690;51.824;6.306;2023-05-27T04:03:57;102800.94;;;18.45;47.23
73455;BME280;61690;51.824;6.306;2023-05-27T04:06:22;102796.56;;;18.44;47.05
73455;BME280;61690;51.824;6.306;2023-05-27T04:08:48;102793.97;;;18.42;46.98
73455;BME280;61690;51.824;6.306;2023-05-27T04:11:13;102795.72;;;18.44;47.36
73455;BME280;61690;51.824;6.306;2023-05-27T04:13:39;102792.38;;;18.38;47.21
73455;BME280;61690;51.824;6.306;2023-05-27T04:16:04;102792.16;;;18.45;47.28
73455;BME280;61690;51.824;6.306;2023-05-27T04:18:30;102786.06;;;18.42;46.84
73455;BME280;61690;51.824;6.306;2023-05-27T04:20:55;102778.13;;;18.44;46.86
73455;BME280;61690;51.824;6.306;2023-05-27T04:23:23;102783.44;;;18.42;46.83
73455;BME280;61690;51.824;6.306;2023-05-27T04:25:49;102778.06;;;18.46;47.27
73455;BME280;61690;51.824;6.306;2023-05-27T04:28:14;102771.19;;;18.41;46.74
73455;BME280;61690;51.824;6.306;2023-05-27T04:30:40;102770.28;;;18.42;46.88
73455;BME280;61690;51.824;6.306;2023-05-27T04:33:06;102770.19;;;18.46;47.03
73455;BME280;61690;51.824;6.306;2023-05-27T04:35:32;102771.06;;;18.45;47.20
73455;BME280;61690;51.824;6.306;2023-05-27T04:37:58;102779.91;;;18.44;46.79
73455;BME280;61690;51.824;6.306;2023-05-27T04:40:26;102772.91;;;18.42;47.16
73455;BME280;61690;51.824;6.306;2023-05-27T04:42:51;102778.34;;;18.38;47.17
73455;BME280;61690;51.824;6.306;2023-05-27T04:45:17;102769.47;;;18.40;47.05
73455;BME280;61690;51.824;6.306;2023-05-27T04:47:43;102770.28;;;18.42;47.20
73455;BME280;61690;51.824;6.306;2023-05-27T04:50:10;102772.91;;;18.42;47.03
73455;BME280;61690;51.824;6.306;2023-05-27T04:52:38;102774.72;;;18.40;47.28
73455;BME280;61690;51.824;6.306;2023-05-27T04:55:04;102778.19;;;18.42;46.91
73455;BME280;61690;51.824;6.306;2023-05-27T04:57:30;102778.19;;;18.42;47.13
73455;BME280;61690;51.824;6.306;2023-05-27T04:59:55;102776.69;;;18.35;47.02
73455;BME280;61690;51.824;6.306;2023-05-27T05:02:38;102779.91;;;18.44;47.06
73455;BME280;61690;51.824;6.306;2023-05-27T05:05:08;102767.75;;;18.39;47.20
73455;BME280;61690;51.824;6.306;2023-05-27T05:07:35;102770.28;;;18.42;46.72
73455;BME280;61690;51.824;6.306;2023-05-27T05:10:06;102772.09;;;18.40;47.04
73455;BME280;61690;51.824;6.306;2023-05-27T05:12:32;102769.47;;;18.40;46.80
73455;BME280;61690;51.824;6.306;2023-05-27T05:14:58;102768.56;;;18.41;47.15
73455;BME280;61690;51.824;6.306;2023-05-27T05:17:23;102764.09;;;18.44;46.95
73455;BME280;61690;51.824;6.306;2023-05-27T05:19:50;102763.25;;;18.43;46.79
73455;BME280;61690;51.824;6.306;2023-05-27T05:22:16;102757.22;;;18.39;46.78
73455;BME280;61690;51.824;6.306;2023-05-27T05:24:44;102758.84;;;18.44;46.74
73455;BME280;61690;51.824;6.306;2023-05-27T05:27:10;102750.13;;;18.41;47.00
73455;BME280;61690;51.824;6.306;2023-05-27T05:29:35;102749.31;;;18.39;47.06
73455;BME280;61690;51.824;6.306;2023-05-27T05:32:01;102749.38;;;18.38;47.09
73455;BME280;61690;51.824;6.306;2023-05-27T05:34:27;102749.28;;;18.41;46.65
73455;BME280;61690;51.824;6.306;2023-05-27T05:36:52;102751.03;;;18.40;46.97
73455;BME280;61690;51.824;6.306;2023-05-27T05:39:17;102748.38;;;18.40;47.21
73455;BME280;61690;51.824;6.306;2023-05-27T05:41:43;102758.88;;;18.42;46.91
73455;BME280;61690;51.824;6.306;2023-05-27T05:44:08;102758.88;;;18.42;46.66
73455;BME280;61690;51.824;6.306;2023-05-27T05:46:34;102761.41;;;18.45;46.87
73455;BME280;61690;51.824;6.306;2023-05-27T05:48:59;102752.75;;;18.41;46.87
73455;BME280;61690;51.824;6.306;2023-05-27T05:51:24;102757.97;;;18.43;46.86
73455;BME280;61690;51.824;6.306;2023-05-27T05:53:49;102746.69;;;18.39;46.71
73455;BME280;61690;51.824;6.306;2023-05-27T05:56:15;102749.28;;;18.41;46.97
73455;BME280;61690;51.824;6.306;2023-05-27T05:58:40;102755.44;;;18.40;47.13
73455;BME280;61690;51.824;6.306;2023-05-27T06:01:05;102751.19;;;18.36;47.09
73455;BME280;61690;51.824;6.306;2023-05-27T06:03:31;102751.09;;;18.39;47.15
73455;BME280;61690;51.824;6.306;2023-05-27T06:05:56;102758.06;;;18.40;47.50
73455;BME280;61690;51.824;6.306;2023-05-27T06:08:21;102768.63;;;18.40;46.69
73455;BME280;61690;51.824;6.306;2023-05-27T06:10:46;102752.91;;;18.37;47.24
73455;BME280;61690;51.824;6.306;2023-05-27T06:13:12;102757.31;;;18.36;46.93
73455;BME280;61690;51.824;6.306;2023-05-27T06:15:37;102765.94;;;18.41;46.96
73455;BME280;61690;51.824;6.306;2023-05-27T06:18:04;102765.06;;;18.41;47.02
73455;BME280;61690;51.824;6.306;2023-05-27T06:20:29;102765.06;;;18.41;46.83
73455;BME280;61690;51.824;6.306;2023-05-27T06:22:54;102753.25;;;18.53;46.97
73455;BME280;61690;51.824;6.306;2023-05-27T06:25:20;102753.34;;;18.50;47.13
73455;BME280;61690;51.824;6.306;2023-05-27T06:27:45;102749.91;;;18.48;47.12
73455;BME280;61690;51.824;6.306;2023-05-27T06:30:11;102748.06;;;18.50;46.92
73455;BME280;61690;51.824;6.306;2023-05-27T06:32:36;102744.72;;;18.45;46.92
73455;BME280;61690;51.824;6.306;2023-05-27T06:35:01;102741.28;;;18.42;47.35
73455;BME280;61690;51.824;6.306;2023-05-27T06:37:27;102748.19;;;18.47;47.54
73455;BME280;61690;51.824;6.306;2023-05-27T06:39:53;102751.50;;;18.52;47.18
73455;BME280;61690;51.824;6.306;2023-05-27T06:42:18;102746.28;;;18.50;47.50
73455;BME280;61690;51.824;6.306;2023-05-27T06:44:44;102750.44;;;18.57;46.94
73455;BME280;61690;51.824;6.306;2023-05-27T06:47:10;102747.78;;;18.57;46.99
73455;BME280;61690;51.824;6.306;2023-05-27T06:49:36;102754.03;;;18.55;47.33
73455;BME280;61690;51.824;6.306;2023-05-27T06:52:02;102744.31;;;18.57;47.06
73455;BME280;61690;51.824;6.306;2023-05-27T06:54:27;102740.06;;;18.53;47.21
73455;BME280;61690;51.824;6.306;2023-05-27T06:56:52;102740.88;;;18.55;46.89
73455;BME280;61690;51.824;6.306;2023-05-27T06:59:18;102735.66;;;18.53;46.94
73455;BME280;61690;51.824;6.306;2023-05-27T07:01:43;102735.59;;;18.55;46.80
73455;BME280;61690;51.824;6.306;2023-05-27T07:04:08;102725.91;;;18.55;46.79
73455;BME280;61690;51.824;6.306;2023-05-27T07:06:34;102729.00;;;18.67;47.20
73455;BME280;61690;51.824;6.306;2023-05-27T07:09:00;102730.31;;;18.80;47.17
73455;BME280;61690;51.824;6.306;2023-05-27T07:11:25;102733.66;;;18.85;46.85
73455;BME280;61690;51.824;6.306;2023-05-27T07:13:51;102718.69;;;18.86;46.96
73455;BME280;61690;51.824;6.306;2023-05-27T07:16:16;102709.84;;;18.87;46.83
73455;BME280;61690;51.824;6.306;2023-05-27T07:18:42;102719.53;;;18.86;47.34
73455;BME280;61690;51.824;6.306;2023-05-27T07:21:08;102719.44;;;18.89;46.79
73455;BME280;61690;51.824;6.306;2023-05-27T07:23:36;102714.16;;;18.89;46.62
73455;BME280;61690;51.824;6.306;2023-05-27T07:26:02;102712.47;;;18.87;46.62
73455;BME280;61690;51.824;6.306;2023-05-27T07:28:27;102700.91;;;18.91;46.70
73455;BME280;61690;51.824;6.306;2023-05-27T07:30:52;102705.25;;;18.92;46.94
73455;BME280;61690;51.824;6.306;2023-05-27T07:33:17;102695.66;;;18.91;47.12
73455;BME280;61690;51.824;6.306;2023-05-27T07:35:43;102694.72;;;18.92;46.44
73455;BME280;61690;51.824;6.306;2023-05-27T07:38:12;102692.91;;;18.92;46.68
73455;BME280;61690;51.824;6.306;2023-05-27T07:40:46;102694.59;;;18.95;46.40
73455;BME280;61690;51.824;6.306;2023-05-27T07:43:12;102700.78;;;18.94;46.50
73455;BME280;61690;51.824;6.306;2023-05-27T07:45:38;102691.88;;;18.96;46.68
73455;BME280;61690;51.824;6.306;2023-05-27T07:48:03;102699.75;;;18.98;46.41
73455;BME280;61690;51.824;6.306;2023-05-27T07:50:28;102707.66;;;18.98;46.34
73455;BME280;61690;51.824;6.306;2023-05-27T07:53:00;102688.28;;;18.99;46.40
73455;BME280;61690;51.824;6.306;2023-05-27T07:55:25;102687.25;;;19.03;46.23
73455;BME280;61690;51.824;6.306;2023-05-27T07:57:50;102688.28;;;18.99;46.17
73455;BME280;61690;51.824;6.306;2023-05-27T08:00:16;102677.69;;;19.00;46.18
73455;BME280;61690;51.824;6.306;2023-05-27T08:02:41;102684.59;;;19.03;45.78
73455;BME280;61690;51.824;6.306;2023-05-27T08:05:35;102680.06;;;19.07;45.67
73455;BME280;61690;51.824;6.306;2023-05-27T08:08:00;102680.94;;;19.07;45.48
73455;BME280;61690;51.824;6.306;2023-05-27T08:10:26;102674.75;;;19.08;45.85
73455;BME280;61690;51.824;6.306;2023-05-27T08:12:51;102671.97;;;19.11;45.65
73455;BME280;61690;51.824;6.306;2023-05-27T08:15:26;102665.75;;;19.14;45.53
73455;BME280;61690;51.824;6.306;2023-05-27T08:17:52;102658.69;;;19.14;45.94
73455;BME280;61690;51.824;6.306;2023-05-27T08:20:17;102653.41;;;19.14;45.60
73455;BME280;61690;51.824;6.306;2023-05-27T08:22:42;102646.28;;;19.16;45.67
73455;BME280;61690;51.824;6.306;2023-05-27T08:25:08;102651.50;;;19.18;46.04
73455;BME280;61690;51.824;6.306;2023-05-27T08:27:50;102644.44;;;19.18;45.88
73455;BME280;61690;51.824;6.306;2023-05-27T08:30:17;102638.25;;;19.19;45.92
73455;BME280;61690;51.824;6.306;2023-05-27T08:32:43;102635.53;;;19.21;46.08
73455;BME280;61690;51.824;6.306;2023-05-27T08:35:10;102630.25;;;19.21;45.88
73455;BME280;61690;51.824;6.306;2023-05-27T08:37:36;102632.97;;;19.19;46.17
73455;BME280;61690;51.824;6.306;2023-05-27T08:40:03;102625.78;;;19.23;46.13
73455;BME280;61690;51.824;6.306;2023-05-27T08:42:42;102636.31;;;19.23;46.24
73455;BME280;61690;51.824;6.306;2023-05-27T08:45:09;102625.72;;;19.25;45.91
73455;BME280;61690;51.824;6.306;2023-05-27T08:47:34;102625.72;;;19.25;46.16
73455;BME280;61690;51.824;6.306;2023-05-27T08:50:00;102621.28;;;19.25;46.13
73455;BME280;61690;51.824;6.306;2023-05-27T08:55:07;102610.69;;;19.27;45.98
73455;BME280;61690;51.824;6.306;2023-05-27T08:57:34;102610.56;;;19.30;46.30
73455;BME280;61690;51.824;6.306;2023-05-27T09:00:01;102605.22;;;19.31;46.20
73455;BME280;61690;51.824;6.306;2023-05-27T09:02:27;102597.22;;;19.33;46.32
73455;BME280;61690;51.824;6.306;2023-05-27T09:05:04;102595.41;;;19.35;46.18
73455;BME280;61690;51.824;6.306;2023-05-27T09:07:30;102582.28;;;19.33;45.83
73455;BME280;61690;51.824;6.306;2023-05-27T09:09:57;102593.56;;;19.37;45.86
73455;BME280;61690;51.824;6.306;2023-05-27T09:12:24;102590.94;;;19.37;46.05
73455;BME280;61690;51.824;6.306;2023-05-27T09:14:50;102575.00;;;19.38;45.97
73455;BME280;61690;51.824;6.306;2023-05-27T09:17:25;102585.50;;;19.40;45.98
73455;BME280;61690;51.824;6.306;2023-05-27T09:19:54;102583.66;;;19.42;46.30
73455;BME280;61690;51.824;6.306;2023-05-27T09:22:30;102582.75;;;19.43;45.84
73455;BME280;61690;51.824;6.306;2023-05-27T09:24:56;102585.31;;;19.45;45.82
73455;BME280;61690;51.824;6.306;2023-05-27T09:27:34;102581.75;;;19.46;46.30
73455;BME280;61690;51.824;6.306;2023-05-27T09:30:08;102576.47;;;19.46;46.25
73455;BME280;61690;51.824;6.306;2023-05-27T09:32:33;102573.78;;;19.47;45.96
73455;BME280;61690;51.824;6.306;2023-05-27T09:35:00;102575.63;;;19.45;46.33
73455;BME280;61690;51.824;6.306;2023-05-27T09:37:27;102574.56;;;19.49;46.28
73455;BME280;61690;51.824;6.306;2023-05-27T09:40:12;102575.47;;;19.48;45.92
73455;BME280;61690;51.824;6.306;2023-05-27T09:42:41;102576.47;;;19.46;46.15
73455;BME280;61690;51.824;6.306;2023-05-27T09:45:11;102571.91;;;19.49;46.35
73455;BME280;61690;51.824;6.306;2023-05-27T09:47:51;102573.50;;;19.53;46.29
73455;BME280;61690;51.824;6.306;2023-05-27T09:50:18;102574.28;;;19.55;46.23
73455;BME280;61690;51.824;6.306;2023-05-27T09:52:44;102574.28;;;19.55;46.30
73455;BME280;61690;51.824;6.306;2023-05-27T09:55:11;102561.03;;;19.57;46.16
73455;BME280;61690;51.824;6.306;2023-05-27T09:57:38;102554.13;;;19.54;46.36
73455;BME280;61690;51.824;6.306;2023-05-27T10:00:09;102560.19;;;19.56;46.42
73455;BME280;61690;51.824;6.306;2023-05-27T10:02:39;102548.78;;;19.56;46.28
73455;BME280;61690;51.824;6.306;2023-05-27T10:05:06;102554.19;;;19.53;46.42
73455;BME280;61690;51.824;6.306;2023-05-27T10:07:39;102548.28;;;19.46;46.57
73455;BME280;61690;51.824;6.306;2023-05-27T10:10:07;102543.94;;;19.45;46.80
73455;BME280;61690;51.824;6.306;2023-05-27T10:12:40;102544.75;;;19.47;46.56
73455;BME280;61690;51.824;6.306;2023-05-27T10:15:06;102539.97;;;19.55;46.69
73455;BME280;61690;51.824;6.306;2023-05-27T10:17:46;102530.16;;;19.59;46.43
73455;BME280;61690;51.824;6.306;2023-05-27T10:20:12;102528.56;;;19.55;46.39
73455;BME280;61690;51.824;6.306;2023-05-27T10:22:46;102531.28;;;19.53;46.64
73455;BME280;61690;51.824;6.306;2023-05-27T10:25:12;102529.56;;;19.52;46.46
73455;BME280;61690;51.824;6.306;2023-05-27T10:27:43;102524.28;;;19.52;46.64
73455;BME280;61690;51.824;6.306;2023-05-27T10:30:09;102523.34;;;19.53;46.87
73455;BME280;61690;51.824;6.306;2023-05-27T10:35:39;102517.16;;;19.54;46.59
73455;BME280;61690;51.824;6.306;2023-05-27T10:38:14;102511.16;;;19.51;47.04
73455;BME280;61690;51.824;6.306;2023-05-27T10:40:49;102512.00;;;19.51;46.89
73455;BME280;61690;51.824;6.306;2023-05-27T10:43:27;102511.16;;;19.51;47.45
73455;BME280;61690;51.824;6.306;2023-05-27T10:46:01;102509.25;;;19.54;47.55
73455;BME280;61690;51.824;6.306;2023-05-27T10:48:33;102502.22;;;19.53;47.67
73455;BME280;61690;51.824;6.306;2023-05-27T10:51:05;102504.75;;;19.56;47.44
73455;BME280;61690;51.824;6.306;2023-05-27T10:53:34;102504.75;;;19.56;47.60
73455;BME280;61690;51.824;6.306;2023-05-27T10:56:00;102502.97;;;19.57;47.70
73455;BME280;61690;51.824;6.306;2023-05-27T10:58:26;102495.91;;;19.57;47.79
73455;BME280;61690;51.824;6.306;2023-05-27T11:01:21;102480.94;;;19.58;47.50
73455;BME280;61690;51.824;6.306;2023-05-27T11:03:48;102483.63;;;19.56;47.36
73455;BME280;61690;51.824;6.306;2023-05-27T11:06:15;102487.06;;;19.58;47.66
73455;BME280;61690;51.824;6.306;2023-05-27T11:08:41;102472.91;;;19.59;47.46
73455;BME280;61690;51.824;6.306;2023-05-27T11:11:13;102472.78;;;19.63;47.46
73455;BME280;61690;51.824;6.306;2023-05-27T11:13:48;102478.94;;;19.63;47.68
73455;BME280;61690;51.824;6.306;2023-05-27T11:16:14;102468.19;;;19.68;47.25
73455;BME280;61690;51.824;6.306;2023-05-27T11:18:41;102453.31;;;19.65;47.76
73455;BME280;61690;51.824;6.306;2023-05-27T11:21:07;102463.03;;;19.65;47.58
73455;BME280;61690;51.824;6.306;2023-05-27T11:23:48;102447.06;;;19.68;47.61
73455;BME280;61690;51.824;6.306;2023-05-27T11:26:21;102449.53;;;19.71;47.46
73455;BME280;61690;51.824;6.306;2023-05-27T11:28:52;102449.53;;;19.71;47.17
73455;BME280;61690;51.824;6.306;2023-05-27T11:31:30;102432.00;;;19.70;47.09
73455;BME280;61690;51.824;6.306;2023-05-27T11:33:56;102432.00;;;19.70;47.33
73455;BME280;61690;51.824;6.306;2023-05-27T11:36:25;102438.03;;;19.73;46.93
73455;BME280;61690;51.824;6.306;2023-05-27T11:41:21;102428.31;;;19.74;47.03
73455;BME280;61690;51.824;6.306;2023-05-27T11:43:57;102417.75;;;19.74;46.88
73455;BME280;61690;51.824;6.306;2023-05-27T11:46:24;102414.13;;;19.76;46.89
73455;BME280;61690;51.824;6.306;2023-05-27T11:48:57;102414.13;;;19.76;46.72
73455;BME280;61690;51.824;6.306;2023-05-27T11:51:27;102411.47;;;19.76;46.43
73455;BME280;61690;51.824;6.306;2023-05-27T11:54:03;102405.22;;;19.79;46.45
73455;BME280;61690;51.824;6.306;2023-05-27T11:56:29;102395.34;;;19.83;46.20
73455;BME280;61690;51.824;6.306;2023-05-27T11:58:57;102394.44;;;19.84;46.24
73455;BME280;61690;51.824;6.306;2023-05-27T12:01:23;102391.84;;;19.82;46.07
73455;BME280;61690;51.824;6.306;2023-05-27T12:03:48;102390.94;;;19.83;46.34
73455;BME280;61690;51.824;6.306;2023-05-27T12:06:23;102379.38;;;19.86;45.96
73455;BME280;61690;51.824;6.306;2023-05-27T12:08:52;102374.00;;;19.87;45.87
73455;BME280;61690;51.824;6.306;2023-05-27T12:11:17;102372.22;;;19.88;45.92
73455;BME280;61690;51.824;6.306;2023-05-27T12:13:42;102367.94;;;19.85;45.71
73455;BME280;61690;51.824;6.306;2023-05-27T12:16:10;102371.44;;;19.86;45.68
73455;BME280;61690;51.824;6.306;2023-05-27T12:18:53;102364.44;;;19.85;45.89
73455;BME280;61690;51.824;6.306;2023-05-27T12:21:19;102357.31;;;19.87;45.85
73455;BME280;61690;51.824;6.306;2023-05-27T12:23:45;102356.44;;;19.86;45.90
73455;BME280;61690;51.824;6.306;2023-05-27T12:26:12;102351.94;;;19.88;45.63
73455;BME280;61690;51.824;6.306;2023-05-27T12:28:38;102344.03;;;19.88;45.74
73455;BME280;61690;51.824;6.306;2023-05-27T12:31:07;102350.09;;;19.90;45.40
73455;BME280;61690;51.824;6.306;2023-05-27T12:33:33;102349.09;;;19.93;45.46
73455;BME280;61690;51.824;6.306;2023-05-27T12:35:59;102349.16;;;19.91;45.27
73455;BME280;61690;51.824;6.306;2023-05-27T12:38:24;102327.97;;;19.93;45.13
73455;BME280;61690;51.824;6.306;2023-05-27T12:40:50;102335.97;;;19.91;44.94
73455;BME280;61690;51.824;6.306;2023-05-27T12:43:16;102337.69;;;19.92;45.02
73455;BME280;61690;51.824;6.306;2023-05-27T12:45:48;102334.03;;;19.95;44.95
73455;BME280;61690;51.824;6.306;2023-05-27T12:48:17;102333.00;;;19.97;44.83
73455;BME280;61690;51.824;6.306;2023-05-27T12:50:43;102319.97;;;19.94;44.64
73455;BME280;61690;51.824;6.306;2023-05-27T12:53:09;102328.69;;;19.96;44.58
73455;BME280;61690;51.824;6.306;2023-05-27T12:55:35;102323.41;;;19.96;44.70
73455;BME280;61690;51.824;6.306;2023-05-27T12:58:19;102325.94;;;19.98;44.47
73455;BME280;61690;51.824;6.306;2023-05-27T13:00:44;102324.19;;;19.98;44.87
73455;BME280;61690;51.824;6.306;2023-05-27T13:03:10;102325.81;;;20.01;44.38